Bene Beraq, Israel
Current Conditions -  °F | °C
As of 10:50 AM on Sunday 26 Oct 2014 (Local Time) from LLSD Reporting Station
Clear Clear  
Wind Chill: 77°   Ceiling: Unl
Heat Index: 79°   Visibility: 6mi
Dew Point: 57°   Wind: 6mph
Humidity: 50%   Direction: 270°W
Pressure: 29.97"   Gusts: NA
Location:  32.09°N, 34.85°E
Report Text: LLSD 260750Z 27005KT CAVOK 25/14 Q1015
Loading
Personal Weather Stations






























Interactive Weather Map
Tropical Storm Tracking
New forecast layout! Learn more

10-Day Weather Forecast

Advertisements
Track Severe Weather on mobile